Time;durP1;ratioP1;P1;durP2;ratioP2;P2;SDS_P1;SDS_P2;PMS_P1;PMS_P2;Temp;Humidity;BMP_temperature;BMP_pressure;BME280_temperature;BME280_humidity;BME280_pressure;Samples;Min_cycle;Max_cycle;Signal;HPM_P1;HPM_P2
2021/03/16 00:00:57;;;;;;;45.95;10.52;;;;;;;4.54;40.02;101031.81;4974265;28;20511;-84
2021/03/16 00:03:24;;;;;;;39.08;8.48;;;;;;;6.00;40.24;101311.91;4956360;28;20523;-85
2021/03/16 00:05:51;;;;;;;33.20;8.27;;;;;;;5.18;39.82;101175.25;4961232;28;20039;-85
2021/03/16 00:08:18;;;;;;;48.50;10.38;;;;;;;4.89;39.41;101101.19;4969936;28;20051;-85
2021/03/16 00:10:45;;;;;;;74.93;10.10;;;;;;;4.57;38.07;101075.31;4974107;28;20122;-84
2021/03/16 00:13:12;;;;;;;41.10;7.57;;;;;;;6.30;37.55;101353.69;4975711;28;20045;-84
2021/03/16 00:15:39;;;;;;;58.50;9.90;;;;;;;5.72;37.08;101246.88;4970669;28;20057;-85
2021/03/16 00:18:13;;;;;;;40.88;8.38;;;;;;;6.27;36.61;101292.75;4971797;28;20041;-85
2021/03/16 00:20:41;;;;;;;48.83;8.30;;;;;;;5.91;35.50;101217.78;4974130;28;20392;-86
2021/03/16 00:23:08;;;;;;;67.07;8.05;;;;;;;6.37;35.75;101315.19;4972643;28;20137;-84
2021/03/16 00:25:36;;;;;;;67.15;12.48;;;;;;;6.46;35.11;101337.03;4954088;29;20070;-86
2021/03/16 00:28:04;;;;;;;29.85;7.78;;;;;;;4.97;35.15;101141.38;4969328;28;20049;-84
2021/03/16 00:30:31;;;;;;;48.80;10.00;;;;;;;5.56;35.19;101196.75;4973098;28;20031;-84
2021/03/16 00:32:59;;;;;;;51.80;10.35;;;;;;;4.79;35.32;101109.84;4974166;28;20193;-85
2021/03/16 00:35:26;;;;;;;48.20;8.23;;;;;;;6.25;35.96;101316.88;4973627;28;20181;-85
2021/03/16 00:37:53;;;;;;;65.18;10.10;;;;;;;5.97;35.44;101249.06;4978559;28;20019;-86
2021/03/16 00:40:20;;;;;;;65.93;10.25;;;;;;;5.60;35.56;101189.78;4974139;28;20041;-85
2021/03/16 00:42:47;;;;;;;63.92;11.80;;;;;;;6.06;36.18;101242.34;4957500;28;20491;-84
2021/03/16 00:45:15;;;;;;;63.95;10.27;;;;;;;6.87;35.90;101358.03;4955587;28;20149;-85
2021/03/16 00:47:42;;;;;;;64.82;9.23;;;;;;;6.19;35.64;101241.56;4962089;28;20031;-83
2021/03/16 00:50:13;;;;;;;52.83;7.30;;;;;;;7.08;35.70;101356.16;4958169;28;20023;-84
2021/03/16 00:52:40;;;;;;;68.05;10.65;;;;;;;5.88;35.89;101166.81;4956159;28;20142;-85
2021/03/16 00:55:07;;;;;;;68.45;11.77;;;;;;;6.28;36.68;101349.44;4969711;28;20038;-85
2021/03/16 00:57:34;;;;;;;48.47;8.25;;;;;;;5.80;36.85;101210.13;4973663;28;20106;-85
2021/03/16 01:00:01;;;;;;;53.50;8.93;;;;;;;5.63;35.07;101190.44;4972422;28;20039;-86
2021/03/16 01:02:28;;;;;;;38.50;9.82;;;;;;;5.10;35.62;101143.31;4975051;28;20041;-85
2021/03/16 01:04:55;;;;;;;41.67;8.50;;;;;;;6.04;35.71;101317.88;4974464;28;20035;-86
2021/03/16 01:07:22;;;;;;;34.55;8.65;;;;;;;5.07;36.16;101202.22;4972146;28;20124;-86
2021/03/16 01:09:49;;;;;;;43.70;9.80;;;;;;;5.72;37.18;101312.84;4971669;28;20023;-86
2021/03/16 01:12:16;;;;;;;59.17;9.50;;;;;;;6.09;38.11;101384.06;4968242;28;20031;-86
2021/03/16 01:14:43;;;;;;;46.85;8.75;;;;;;;5.69;37.91;101286.59;4951518;28;20117;-87
2021/03/16 01:17:10;;;;;;;52.53;9.35;;;;;;;4.79;38.10;101111.72;4969186;28;20043;-86
2021/03/16 01:19:37;;;;;;;28.77;7.57;;;;;;;6.39;38.06;101381.88;4973064;28;20023;-86
2021/03/16 01:22:04;;;;;;;64.95;12.65;;;;;;;5.00;38.08;101118.16;4971439;28;20022;-85
2021/03/16 01:24:31;;;;;;;52.10;12.20;;;;;;;5.72;38.97;101288.09;4956786;28;20543;-86
2021/03/16 01:26:58;;;;;;;53.83;11.32;;;;;;;5.95;38.70;101275.94;4957403;28;20126;-86
2021/03/16 01:29:25;;;;;;;50.67;10.32;;;;;;;6.80;38.75;101370.94;4955149;28;20539;-84
2021/03/16 01:31:55;;;;;;;48.15;10.43;;;;;;;6.76;38.44;101383.44;4951886;28;20035;-83
2021/03/16 01:34:22;;;;;;;47.75;11.48;;;;;;;6.58;38.53;101296.81;4971079;28;20050;-86
2021/03/16 01:36:49;;;;;;;55.33;11.00;;;;;;;6.79;37.79;101323.28;4954643;28;20521;-85
2021/03/16 01:39:16;;;;;;;78.72;11.77;;;;;;;4.66;38.21;101052.16;4955035;28;20030;-84
2021/03/16 01:41:43;;;;;;;46.35;10.63;;;;;;;6.11;37.47;101280.22;4973489;28;20093;-86
2021/03/16 01:44:10;;;;;;;63.30;8.95;;;;;;;6.14;36.75;101277.06;4971155;28;20030;-84
2021/03/16 01:46:37;;;;;;;52.45;9.75;;;;;;;6.40;37.31;101280.94;4971719;28;20125;-86
2021/03/16 01:49:04;;;;;;;42.53;6.55;;;;;;;6.91;35.65;101363.97;4960142;28;20031;-86
2021/03/16 01:51:32;;;;;;;92.80;14.98;;;;;;;6.97;36.73;101369.47;4970510;28;20038;-85
2021/03/16 01:53:59;;;;;;;52.10;10.02;;;;;;;6.37;36.30;101262.09;4964654;28;20054;-85
2021/03/16 01:56:29;;;;;;;54.67;9.55;;;;;;;7.21;36.06;101385.59;4956546;28;20035;-85
2021/03/16 01:58:56;;;;;;;51.75;8.95;;;;;;;7.20;35.76;101343.41;4962021;28;20035;-85
2021/03/16 02:01:24;;;;;;;60.40;10.45;;;;;;;6.59;36.70;101267.41;4953157;28;20647;-86
2021/03/16 02:03:55;;;;;;;61.28;8.30;;;;;;;6.71;36.57;101318.00;4936662;29;20031;-86
2021/03/16 02:07:14;;;;;;;37.08;8.25;;;;;;;6.98;34.57;101337.28;4954486;28;20506;-83
2021/03/16 02:09:59;;;;;;;62.83;9.63;;;;;;;6.32;33.80;101251.72;4937411;28;20053;-84
2021/03/16 02:12:29;;;;;;;32.60;6.43;;;;;;;7.03;33.42;101344.91;4968619;28;20030;-86
2021/03/16 02:15:03;;;;;;;30.15;9.60;;;;;;;6.23;33.62;101214.50;4968992;28;20027;-86
2021/03/16 02:17:35;;;;;;;59.30;8.63;;;;;;;6.42;33.65;101249.41;4957542;28;20452;-85
2021/03/16 02:20:24;;;;;;;50.95;8.90;;;;;;;5.75;31.79;101136.56;4968226;28;20023;-86
2021/03/16 02:22:53;;;;;;;51.55;7.93;;;;;;;6.76;31.85;101274.19;4944784;28;20058;-84
2021/03/16 02:25:35;;;;;;;40.72;12.15;;;;;;;7.59;31.79;101326.19;4969899;28;20042;-85
2021/03/16 02:28:11;;;;;;;40.00;9.90;;;;;;;7.18;32.19;101314.41;4955970;28;20537;-86
2021/03/16 02:30:41;;;;;;;50.40;10.25;;;;;;;6.86;32.54;101279.28;4958836;28;20035;-85
2021/03/16 02:33:12;;;;;;;36.17;8.02;;;;;;;6.73;33.12;101284.78;4957646;28;20062;-86
2021/03/16 02:35:42;;;;;;;45.30;9.15;;;;;;;7.02;33.47;101311.00;4964093;28;20031;-86
2021/03/16 02:38:10;;;;;;;;;;;;;;;7.12;32.76;101311.44;4971507;28;20047;-85
2021/03/16 02:40:39;;;;;;;47.22;9.27;;;;;;;6.83;31.56;101247.50;4971320;28;19914;-86
2021/03/16 02:43:07;;;;;;;40.95;7.72;;;;;;;6.02;31.95;101103.66;4971182;28;20121;-86
2021/03/16 02:45:35;;;;;;;40.22;8.63;;;;;;;6.13;31.96;101114.00;4971096;28;20403;-86
2021/03/16 02:48:04;;;;;;;53.15;9.23;;;;;;;7.24;31.96;101269.47;4955315;28;20035;-87
2021/03/16 02:50:32;;;;;;;33.42;7.65;;;;;;;7.16;32.59;101254.03;4970822;28;20027;-86
2021/03/16 02:53:00;;;;;;;34.22;7.05;;;;;;;6.52;31.74;101127.94;4971035;28;20662;-87
2021/03/16 02:55:29;;;;;;;63.20;9.35;;;;;;;7.81;32.64;101291.75;4953541;28;20496;-85
2021/03/16 02:57:58;;;;;;;49.70;8.52;;;;;;;6.56;31.99;101082.44;4972106;28;20066;-86
2021/03/16 03:00:26;;;;;;;42.17;8.40;;;;;;;7.79;31.61;101230.50;4954966;28;20388;-84
2021/03/16 03:02:54;;;;;;;39.58;11.15;;;;;;;7.46;32.13;101140.59;4954529;28;20274;-84
2021/03/16 03:05:22;;;;;;;49.78;7.57;;;;;;;7.08;29.75;101157.91;4954053;28;20031;-85
2021/03/16 03:07:50;;;;;;;51.03;8.18;;;;;;;7.90;30.52;101245.50;4971134;28;20047;-85
2021/03/16 03:10:18;;;;;;;50.45;7.53;;;;;;;8.30;30.00;101280.28;4967319;28;20027;-85
2021/03/16 03:12:45;;;;;;;43.25;10.45;;;;;;;7.64;30.52;101175.69;4971120;28;20089;-84
2021/03/16 03:15:12;;;;;;;43.08;7.45;;;;;;;7.73;31.32;101181.75;4958511;28;20026;-84
2021/03/16 03:17:39;;;;;;;44.28;9.77;;;;;;;7.55;31.68;101168.69;4974390;28;20019;-85
2021/03/16 03:20:10;;;;;;;38.45;9.60;;;;;;;8.20;31.36;101231.13;4974525;28;20050;-85
2021/03/16 03:22:44;;;;;;;56.25;7.47;;;;;;;8.15;30.37;101266.78;4954816;28;20046;-85
2021/03/16 03:25:37;;;;;;;42.42;8.13;;;;;;;7.90;30.37;101269.50;4955163;28;20177;-85
2021/03/16 03:28:32;;;;;;;27.42;6.82;;;;;;;8.19;30.91;101248.75;4972820;28;20476;-85
2021/03/16 03:31:05;;;;;;;37.45;6.35;;;;;;;8.18;31.14;101262.75;4971732;28;20034;-84
2021/03/16 03:33:36;;;;;;;48.88;8.52;;;;;;;8.60;30.73;101265.03;4971702;28;20078;-86
2021/03/16 03:36:03;;;;;;;;;;;;;;;8.58;30.59;101262.53;4970641;28;20031;-82
2021/03/16 03:38:32;;;;;;;33.22;6.78;;;;;;;6.57;31.48;100952.09;4971001;28;19925;-84
2021/03/16 03:41:01;;;;;;;51.80;9.52;;;;;;;7.37;32.18;101070.28;4955013;28;20095;-85
2021/03/16 03:43:30;;;;;;;45.33;10.38;;;;;;;7.16;31.71;101104.47;4955096;28;20038;-86
2021/03/16 03:45:58;;;;;;;57.13;9.43;;;;;;;7.20;32.40;101127.78;4954554;28;20034;-84
2021/03/16 03:48:28;;;;;;;37.15;6.78;;;;;;;7.86;33.07;101178.09;4971548;28;20030;-84
2021/03/16 03:50:57;;;;;;;59.95;9.45;;;;;;;8.29;33.28;101193.09;4972381;28;20030;-85
2021/03/16 03:53:30;;;;;;;43.93;9.30;;;;;;;8.18;35.33;101196.53;4976151;28;20043;-85
2021/03/16 03:55:57;;;;;;;62.58;8.95;;;;;;;7.42;37.38;101128.28;4975953;28;20030;-83
2021/03/16 03:58:25;;;;;;;49.63;9.00;;;;;;;7.28;37.35;101107.38;4975545;28;20093;-86
2021/03/16 04:00:53;;;;;;;61.67;9.05;;;;;;;6.56;37.58;101084.34;4959814;28;20035;-85
2021/03/16 04:03:20;;;;;;;41.90;8.65;;;;;;;7.62;37.11;101259.63;4959651;28;20030;-86
2021/03/16 04:05:51;;;;;;;58.95;9.02;;;;;;;6.93;37.26;101153.50;4960865;28;20098;-84
2021/03/16 04:08:19;;;;;;;47.22;8.77;;;;;;;6.92;38.55;101139.94;4955855;28;20085;-86
2021/03/16 04:10:46;;;;;;;45.30;9.57;;;;;;;7.52;38.59;101205.84;4976901;28;20031;-85
2021/03/16 04:13:13;;;;;;;41.30;8.98;;;;;;;6.93;38.34;101134.22;4981682;28;20034;-84
2021/03/16 04:15:40;;;;;;;32.95;7.60;;;;;;;7.17;39.92;101173.13;4983856;28;20022;-85
2021/03/16 04:18:09;;;;;;;46.33;7.68;;;;;;;7.48;42.67;101247.81;4961942;28;20034;-86
2021/03/16 04:20:36;;;;;;;48.95;6.80;;;;;;;7.38;43.79;101243.59;4958651;28;20054;-85
2021/03/16 04:23:03;;;;;;;58.63;10.77;;;;;;;7.12;44.59;101135.22;4973604;28;20031;-86
2021/03/16 04:25:30;;;;;;;42.50;8.18;;;;;;;7.94;45.44;101254.19;4974178;28;20068;-86
2021/03/16 04:27:58;;;;;;;39.83;6.55;;;;;;;7.97;41.01;101217.91;4957108;28;20062;-85
2021/03/16 04:30:25;;;;;;;32.55;5.97;;;;;;;7.89;42.09;101194.19;4956799;28;20050;-85
2021/03/16 04:32:52;;;;;;;39.83;7.43;;;;;;;7.67;43.53;101152.34;4956744;28;20027;-85
2021/03/16 04:35:19;;;;;;;40.80;6.80;;;;;;;7.17;44.06;101206.16;4957086;28;20042;-85
2021/03/16 04:37:46;;;;;;;43.72;6.65;;;;;;;7.10;45.15;101148.38;4956400;28;20038;-85
2021/03/16 04:40:13;;;;;;;31.27;6.07;;;;;;;7.12;44.15;101096.66;4955942;28;20042;-86
2021/03/16 04:42:40;;;;;;;51.97;10.40;;;;;;;6.63;47.01;101060.41;4972712;28;20031;-85
2021/03/16 04:45:08;;;;;;;44.03;7.10;;;;;;;7.43;47.70;101262.22;4956939;28;20117;-86
2021/03/16 04:47:35;;;;;;;48.90;7.90;;;;;;;7.64;45.81;101260.25;4957251;28;20115;-85
2021/03/16 04:50:03;;;;;;;41.05;7.43;;;;;;;6.84;45.00;101168.56;4974436;28;20038;-84
2021/03/16 04:52:30;;;;;;;43.70;7.40;;;;;;;7.15;46.20;101285.41;4955437;28;20010;-89
2021/03/16 04:54:57;;;;;;;43.58;6.57;;;;;;;7.30;45.35;101279.63;4974098;28;20058;-88
2021/03/16 04:57:24;;;;;;;47.28;8.10;;;;;;;6.15;45.43;101127.56;4974237;28;20019;-88
2021/03/16 04:59:51;;;;;;;41.90;6.57;;;;;;;7.43;45.65;101284.25;4963584;28;20035;-90
2021/03/16 05:02:18;;;;;;;26.40;6.50;;;;;;;7.02;45.69;101271.63;4974317;28;20023;-90
2021/03/16 05:04:45;;;;;;;33.13;7.13;;;;;;;7.30;45.75;101292.59;4969599;28;20037;-90
2021/03/16 05:07:11;;;;;;;25.67;5.90;;;;;;;6.87;46.96;101247.06;4973948;28;20063;-91
2021/03/16 05:09:38;;;;;;;30.90;7.05;;;;;;;6.29;48.03;101189.75;4973047;28;20039;-91
2021/03/16 05:12:06;;;;;;;57.28;7.13;;;;;;;6.04;47.88;101151.00;4960971;28;20030;-89
2021/03/16 05:14:33;;;;;;;48.25;8.18;;;;;;;6.33;48.11;101203.91;4973498;28;20039;-87
2021/03/16 05:17:00;;;;;;;40.67;8.25;;;;;;;6.77;48.20;101283.31;4973385;28;20046;-89
2021/03/16 05:19:28;;;;;;;35.95;5.72;;;;;;;6.97;48.24;101314.41;4982248;28;20030;-87
2021/03/16 05:21:55;;;;;;;46.33;7.38;;;;;;;7.06;49.35;101303.19;4963167;28;20080;-92
2021/03/16 05:24:23;;;;;;;38.05;7.47;;;;;;;6.95;50.82;101290.94;4975499;28;20035;-91
2021/03/16 05:26:50;;;;;;;34.13;8.93;;;;;;;7.00;51.27;101299.38;4970435;28;20042;-94
2021/03/16 05:29:17;;;;;;;49.83;8.45;;;;;;;6.56;50.24;101224.66;4986392;28;20508;-94
2021/03/16 05:31:44;;;;;;;43.42;9.50;;;;;;;6.71;51.14;101232.69;4979960;28;20037;-94
2021/03/16 05:34:12;;;;;;;30.40;7.10;;;;;;;6.30;53.65;101174.94;4986951;28;20039;-95
2021/03/16 05:36:39;;;;;;;56.85;11.13;;;;;;;5.60;55.56;101018.63;4961500;28;20034;-94
2021/03/16 05:39:06;;;;;;;54.83;9.13;;;;;;;6.36;54.10;101170.47;4977936;28;20031;-92
2021/03/16 05:41:36;;;;;;;40.97;7.55;;;;;;;6.38;51.35;101162.88;4959484;28;20384;-92
2021/03/16 05:44:03;;;;;;;35.95;6.35;;;;;;;6.94;50.87;101325.00;4974753;28;20041;-93
2021/03/16 05:47:12;;;;;;;48.03;7.38;;;;;;;6.86;51.27;101306.81;4945696;28;20042;-96
2021/03/16 05:53:03;;;;;;;42.88;7.93;;;;;;;6.95;46.10;101293.69;4991854;28;20046;-96
2021/03/16 05:55:31;;;;;;;24.50;7.38;;;;;;;4.29;44.92;100840.44;4987305;28;20457;-96
2021/03/16 05:58:05;;;;;;;39.15;6.63;;;;;;;5.66;43.97;101060.91;4961460;28;20010;-94
2021/03/16 06:00:35;;;;;;;43.67;8.50;;;;;;;6.12;45.34;101158.22;4984004;28;20035;-94
2021/03/16 06:03:02;;;;;;;30.52;6.20;;;;;;;5.97;48.99;101084.16;4964117;28;20022;-96
2021/03/16 06:05:30;;;;;;;37.42;8.38;;;;;;;5.45;52.72;101043.53;4987272;28;20043;-96
2021/03/16 06:07:58;;;;;;;52.97;7.55;;;;;;;5.65;53.76;101073.78;4971113;28;20043;-96
2021/03/16 06:10:25;;;;;;;54.25;10.52;;;;;;;5.43;54.89;101012.69;4978424;28;20044;-93
2021/03/16 06:13:16;;;;;;;41.70;9.55;;;;;;;4.05;56.53;100875.56;4965262;28;20086;-93
2021/03/16 06:19:46;;;;;;;32.33;5.68;;;;;;;6.89;50.05;101280.75;4999618;28;20021;-89
2021/03/16 06:22:25;;;;;;;41.17;6.10;;;;;;;6.46;46.66;101183.00;4963129;28;20049;-96
2021/03/16 06:24:53;;;;;;;48.85;6.38;;;;;;;7.04;45.75;101219.94;4973813;28;20069;-93
2021/03/16 06:27:26;;;;;;;26.98;7.28;;;;;;;7.58;44.31;101291.44;4974974;28;20488;-87
2021/03/16 06:29:54;;;;;;;21.05;6.50;;;;;;;6.88;43.34;101199.25;4971452;28;20046;-89
2021/03/16 06:32:21;;;;;;;42.45;5.85;;;;;;;6.17;44.46;101150.16;4971863;28;20031;-86
2021/03/16 06:34:59;;;;;;;35.78;5.80;;;;;;;7.16;44.77;101289.84;4971550;28;20038;-88
2021/03/16 06:37:26;;;;;;;44.50;6.90;;;;;;;7.00;48.31;101232.47;4969553;28;20026;-85
2021/03/16 06:39:54;;;;;;;34.67;6.43;;;;;;;6.56;50.34;101243.91;4971773;28;20061;-80
2021/03/16 06:42:29;;;;;;;45.53;8.80;;;;;;;6.50;51.87;101253.00;4970416;28;20117;-83
2021/03/16 06:45:07;;;;;;;29.63;5.82;;;;;;;6.85;51.31;101274.84;4969860;28;20089;-81
2021/03/16 06:47:41;;;;;;;56.85;7.85;;;;;;;6.52;52.04;101283.91;4971789;28;20575;-84
2021/03/16 06:50:10;;;;;;;37.92;7.13;;;;;;;6.59;52.13;101207.72;4954064;28;20554;-85
2021/03/16 06:52:37;;;;;;;46.97;6.63;;;;;;;6.02;50.63;101079.75;4952663;28;20031;-87
2021/03/16 06:55:15;;;;;;;29.77;6.47;;;;;;;7.03;49.37;101273.31;4971039;28;20034;-85
2021/03/16 06:57:42;;;;;;;49.88;10.55;;;;;;;5.92;50.84;101169.13;4971318;28;20022;-84
2021/03/16 07:00:11;;;;;;;70.15;9.93;;;;;;;5.97;52.91;101227.09;4973145;28;20035;-94
2021/03/16 07:02:44;;;;;;;33.78;7.75;;;;;;;6.22;53.93;101235.63;4973051;28;20031;-90
2021/03/16 07:05:12;;;;;;;43.92;7.30;;;;;;;6.11;54.79;101168.38;4972639;28;20035;-87
2021/03/16 07:07:42;;;;;;;27.40;6.97;;;;;;;5.60;55.39;101153.22;4973317;28;20050;-96
2021/03/16 07:10:10;;;;;;;39.85;6.45;;;;;;;5.63;54.96;101132.75;4973279;28;20022;-94
2021/03/16 07:12:37;;;;;;;31.27;6.80;;;;;;;6.67;55.57;101289.22;4957924;28;20043;-92
2021/03/16 07:15:06;;;;;;;37.55;6.88;;;;;;;6.28;54.76;101294.44;4977578;28;20034;-88
2021/03/16 07:17:34;;;;;;;20.52;4.90;;;;;;;4.99;55.49;101004.78;4967042;28;20031;-94
2021/03/16 07:20:08;;;;;;;24.65;4.97;;;;;;;6.69;52.91;101221.91;4967475;28;20031;-92
2021/03/16 07:22:49;;;;;;;40.72;8.93;;;;;;;6.80;54.95;101260.84;4982770;28;20038;-90
2021/03/16 07:25:18;;;;;;;48.67;8.25;;;;;;;6.75;56.03;101206.44;4991232;28;20039;-93
2021/03/16 07:28:09;;;;;;;50.38;9.02;;;;;;;6.89;57.47;101174.22;4994068;28;20027;-93
2021/03/16 07:30:35;;;;;;;;;;;;;;;7.37;54.70;101285.16;4980120;28;20078;-91
2021/03/16 07:33:03;;;;;;;33.47;6.50;;;;;;;7.53;54.96;101298.47;4979025;28;20395;-89
2021/03/16 07:35:34;;;;;;;33.67;5.40;;;;;;;7.70;55.47;101284.19;4990477;28;20035;-92
2021/03/16 07:38:02;;;;;;;39.92;8.80;;;;;;;7.75;55.60;101303.69;4986973;28;20098;-91
2021/03/16 07:40:33;;;;;;;51.50;7.78;;;;;;;7.04;56.05;101239.22;4973627;28;20567;-94
2021/03/16 07:43:02;;;;;;;28.80;6.97;;;;;;;7.56;56.33;101293.56;4997219;28;20023;-91
2021/03/16 07:45:30;;;;;;;30.65;5.85;;;;;;;7.21;54.89;101207.44;4994395;28;20030;-94
2021/03/16 07:47:57;;;;;;;42.42;6.63;;;;;;;6.61;54.42;101112.06;4991923;28;20037;-93
2021/03/16 07:50:32;;;;;;;38.00;7.72;;;;;;;7.71;55.22;101283.13;4980523;28;20077;-90
2021/03/16 07:52:59;;;;;;;32.20;5.43;;;;;;;7.54;52.36;101280.00;4965289;28;20034;-93
2021/03/16 07:55:28;;;;;;;24.02;5.60;;;;;;;7.21;49.81;101231.34;4962335;28;20123;-94
2021/03/16 07:58:12;;;;;;;38.78;6.15;;;;;;;7.21;51.77;101269.91;4959790;28;20028;-91
2021/03/16 08:00:40;;;;;;;40.20;16.10;;;;;;;6.95;52.04;101233.94;4960847;28;20089;-91
2021/03/16 08:03:07;;;;;;;52.78;23.38;;;;;;;7.49;52.84;101275.13;4975862;28;20035;-90
2021/03/16 08:05:44;;;;;;;38.28;11.15;;;;;;;6.11;56.60;101129.00;4967755;28;20035;-93
2021/03/16 08:08:16;;;;;;;23.60;5.63;;;;;;;5.69;55.93;101052.22;4962436;28;20043;-92
2021/03/16 08:10:47;;;;;;;39.30;7.07;;;;;;;7.12;55.05;101266.53;4977756;28;20027;-91
2021/03/16 08:13:19;;;;;;;32.85;5.47;;;;;;;6.60;55.30;101142.53;4976479;28;20038;-89
2021/03/16 08:15:50;;;;;;;27.90;6.57;;;;;;;7.25;55.94;101261.00;4974568;28;20123;-89
2021/03/16 08:18:28;;;;;;;36.35;7.57;;;;;;;7.17;55.15;101230.94;4964390;28;20027;-91
2021/03/16 08:21:13;;;;;;;24.33;5.25;;;;;;;7.20;56.02;101273.72;4956844;28;20022;-92
2021/03/16 08:23:41;;;;;;;26.75;5.93;;;;;;;6.31;54.77;101162.03;4976972;28;20054;-94
2021/03/16 08:26:08;;;;;;;39.55;7.22;;;;;;;6.97;55.06;101262.09;4978245;28;20061;-92
2021/03/16 08:28:35;;;;;;;32.28;6.05;;;;;;;6.37;53.55;101150.16;4978000;28;20031;-93
2021/03/16 08:31:04;;;;;;;26.05;5.82;;;;;;;5.53;54.23;101029.59;4977428;28;20031;-91
2021/03/16 08:33:31;;;;;;;39.60;7.30;;;;;;;6.62;55.45;101214.72;4959327;28;20973;-91
2021/03/16 08:35:58;;;;;;;29.02;7.28;;;;;;;7.02;56.87;101266.13;4961458;28;20385;-91
2021/03/16 08:38:29;;;;;;;32.42;7.43;;;;;;;7.20;57.54;101260.78;4975244;28;20037;-91
2021/03/16 08:41:22;;;;;;;41.85;6.78;;;;;;;7.36;58.58;101270.50;4975979;28;21411;-90
2021/03/16 08:43:51;;;;;;;37.00;7.57;;;;;;;6.08;60.05;101086.31;4958595;28;20074;-90
2021/03/16 08:46:33;;;;;;;46.20;6.18;;;;;;;5.18;60.11;100999.56;4965263;28;20131;-91
2021/03/16 08:49:01;;;;;;;47.28;6.95;;;;;;;6.49;60.46;101205.41;4960798;28;20030;-93
2021/03/16 08:51:30;;;;;;;31.13;6.18;;;;;;;5.88;59.78;101073.38;4971036;28;20117;-91
2021/03/16 08:53:58;;;;;;;41.47;9.02;;;;;;;6.84;59.63;101210.66;4973790;28;20031;-94
2021/03/16 08:56:25;;;;;;;30.85;6.47;;;;;;;7.29;60.13;101293.63;4973199;28;20034;-92
2021/03/16 08:58:55;;;;;;;26.88;9.20;;;;;;;7.04;60.08;101264.00;4976949;28;20058;-91
2021/03/16 09:01:27;;;;;;;35.53;7.05;;;;;;;6.94;59.34;101248.78;4975647;28;20502;-90
2021/03/16 09:03:54;;;;;;;34.22;8.40;;;;;;;6.57;60.93;101237.34;4981874;28;20031;-91
2021/03/16 09:06:22;;;;;;;39.53;5.90;;;;;;;6.43;57.59;101220.84;4972674;28;20113;-89
2021/03/16 09:08:53;;;;;;;37.97;7.78;;;;;;;6.63;57.93;101253.03;4969625;28;20129;-89
2021/03/16 09:11:37;;;;;;;41.83;7.07;;;;;;;5.79;55.04;101074.66;4973638;28;20169;-91
2021/03/16 09:14:15;;;;;;;35.65;6.75;;;;;;;7.12;52.97;101278.41;4977378;28;20023;-91
2021/03/16 09:16:53;;;;;;;36.50;8.05;;;;;;;6.96;53.62;101235.63;4958008;28;20451;-88
2021/03/16 09:19:23;;;;;;;35.63;5.22;;;;;;;7.03;51.63;101278.84;4974197;28;20041;-91
2021/03/16 09:21:54;;;;;;;22.40;4.63;;;;;;;7.15;53.59;101282.66;4965472;28;20026;-91
2021/03/16 09:24:28;;;;;;;31.30;5.40;;;;;;;7.29;52.02;101279.84;4974888;28;20049;-89
2021/03/16 09:27:04;;;;;;;35.85;6.82;;;;;;;6.94;52.39;101259.78;4960315;28;20028;-90
2021/03/16 09:29:36;;;;;;;29.73;6.55;;;;;;;6.34;54.38;101182.75;4982571;28;20030;-91
2021/03/16 09:32:07;;;;;;;36.70;7.28;;;;;;;6.57;55.78;101249.22;4971334;28;20027;-91
2021/03/16 09:34:39;;;;;;;46.95;7.75;;;;;;;6.75;55.52;101294.50;4979267;28;20085;-91
2021/03/16 09:37:15;;;;;;;36.78;6.68;;;;;;;6.14;56.24;101189.94;4966141;28;20027;-91
2021/03/16 09:39:56;;;;;;;35.45;8.27;;;;;;;6.42;57.01;101235.66;4965144;28;20061;-90
2021/03/16 09:42:52;;;;;;;32.45;6.65;;;;;;;6.73;56.58;101290.28;4963215;28;20023;-92
2021/03/16 09:45:31;;;;;;;40.05;7.13;;;;;;;6.62;52.20;101273.34;4963165;28;20417;-95
2021/03/16 09:48:00;;;;;;;42.67;8.18;;;;;;;6.63;50.48;101319.06;4981464;28;20030;-94
2021/03/16 09:50:36;;;;;;;26.50;5.75;;;;;;;6.68;50.30;101313.78;4974096;28;20026;-93
2021/03/16 09:53:08;;;;;;;33.13;8.05;;;;;;;6.31;50.74;101274.78;4980321;28;20057;-91
2021/03/16 09:55:37;;;;;;;29.38;6.50;;;;;;;6.49;49.72;101251.31;4986607;28;20054;-96
2021/03/16 09:58:48;;;;;;;45.92;7.25;;;;;;;6.71;49.39;101316.09;4982766;28;20035;-96
2021/03/16 10:01:19;;;;;;;31.88;7.82;;;;;;;6.66;50.94;101326.88;4977725;28;20030;-95
2021/03/16 10:03:59;;;;;;;29.35;5.70;;;;;;;4.00;50.57;100889.03;4988688;28;20030;-94
2021/03/16 10:06:34;;;;;;;;;;;;;;;6.52;50.91;101312.28;4983364;28;20039;-94
2021/03/16 10:09:13;;;;;;;32.70;6.72;;;;;;;6.20;50.57;101264.41;4966852;28;19930;-95
2021/03/16 10:11:40;;;;;;;30.08;6.13;;;;;;;5.84;50.43;101198.50;4956201;28;20042;-95
2021/03/16 10:14:07;;;;;;;46.13;8.07;;;;;;;6.14;50.01;101272.41;4976727;28;20042;-91
2021/03/16 10:16:35;;;;;;;50.13;7.03;;;;;;;5.64;49.47;101161.91;4975423;28;20034;-93
2021/03/16 10:19:03;;;;;;;38.40;7.55;;;;;;;6.11;50.30;101245.34;4958925;28;20500;-84
2021/03/16 10:21:45;;;;;;;37.25;8.63;;;;;;;6.50;48.92;101321.78;4972860;28;20082;-94
2021/03/16 10:24:12;;;;;;;33.20;5.35;;;;;;;6.52;48.02;101319.66;4980672;28;20531;-91
2021/03/16 10:26:39;;;;;;;46.92;6.68;;;;;;;6.50;47.43;101291.53;4975934;28;20035;-95
2021/03/16 10:29:18;;;;;;;40.95;8.90;;;;;;;6.36;48.66;101277.75;4975737;28;20050;-96
2021/03/16 10:31:45;;;;;;;29.80;5.97;;;;;;;6.51;48.40;101299.56;4970845;28;20046;-93
2021/03/16 10:37:28;;;;;;;37.05;6.53;;;;;;;3.83;46.06;100829.09;5219324;23;20062;-95
2021/03/16 10:40:24;;;;;;;44.08;8.23;;;;;;;4.77;46.55;100993.13;4977825;28;20038;-96
2021/03/16 10:42:58;;;;;;;40.03;8.85;;;;;;;6.63;45.50;101312.69;4990679;28;20031;-95
2021/03/16 10:45:30;;;;;;;35.45;7.07;;;;;;;5.46;46.10;101117.47;4992445;28;20039;-94
2021/03/16 10:48:44;;;;;;;37.70;6.90;;;;;;;4.84;47.13;101031.53;4978281;28;20019;-92
2021/03/16 10:51:26;;;;;;;22.55;7.78;;;;;;;4.77;47.92;101040.59;5055732;23;20048;-92
2021/03/16 11:27:13;;;;;;;40.70;6.47;;;;;;;6.56;45.02;101345.72;5150371;23;20077;-95
2021/03/16 11:29:41;;;;;;;20.48;5.43;;;;;;;6.37;45.28;101328.13;4986370;28;20027;-94
2021/03/16 11:32:08;;;;;;;41.38;7.35;;;;;;;6.46;45.44;101348.03;4996634;28;20027;-94
2021/03/16 11:34:35;;;;;;;37.92;7.03;;;;;;;6.38;45.69;101360.91;4981549;28;20062;-94
2021/03/16 11:37:02;;;;;;;31.20;6.88;;;;;;;4.89;45.81;101108.59;4968256;28;20023;-95
2021/03/16 11:39:32;;;;;;;52.97;7.22;;;;;;;4.38;45.90;101061.25;4968201;28;20034;-94
2021/03/16 11:41:59;;;;;;;;;;;;;;;6.26;46.16;101357.94;4983348;28;20035;-95
2021/03/16 11:44:26;;;;;;;68.57;10.65;;;;;;;5.77;46.62;101290.22;4969987;28;19922;-90
2021/03/16 11:46:53;;;;;;;37.15;8.55;;;;;;;6.02;46.51;101326.31;4967956;28;20047;-90
2021/03/16 11:49:20;;;;;;;36.35;8.55;;;;;;;6.26;46.49;101363.41;4966581;28;20018;-93
2021/03/16 11:51:47;;;;;;;35.80;9.73;;;;;;;5.97;46.65;101337.03;4962415;28;20028;-90
2021/03/16 11:54:14;;;;;;;36.10;8.45;;;;;;;6.25;46.28;101400.19;4958592;28;20023;-87
2021/03/16 11:56:41;;;;;;;38.92;9.23;;;;;;;6.28;46.86;101409.94;4964577;28;20014;-91
2021/03/16 11:59:13;;;;;;;45.95;9.65;;;;;;;6.01;46.30;101332.84;4969167;28;20038;-93
2021/03/16 12:01:40;;;;;;;32.13;7.43;;;;;;;5.67;46.11;101282.38;4964069;28;20026;-93
2021/03/16 12:04:07;;;;;;;56.85;10.23;;;;;;;5.66;45.94;101324.63;4964665;28;20051;-91
2021/03/16 12:06:34;;;;;;;43.90;10.38;;;;;;;6.18;46.15;101421.31;4959142;28;20035;-93
2021/03/16 12:09:07;;;;;;;39.83;10.65;;;;;;;6.20;45.59;101422.00;4968564;28;20029;-91
2021/03/16 12:11:41;;;;;;;36.35;9.20;;;;;;;5.37;45.63;101278.00;4972829;28;20011;-93
2021/03/16 12:14:10;;;;;;;45.05;9.75;;;;;;;3.68;45.14;101008.06;4968606;28;20038;-96
2021/03/16 12:16:37;;;;;;;38.55;10.85;;;;;;;4.31;46.51;101157.19;4995309;23;20073;-93
2021/03/16 12:19:04;;;;;;;49.55;7.95;;;;;;;3.92;45.93;101101.00;4994323;28;20028;-95
2021/03/16 12:21:32;;;;;;;32.83;8.48;;;;;;;4.59;45.84;101240.50;4997546;28;20035;-96
2021/03/16 12:24:03;;;;;;;30.88;9.68;;;;;;;4.98;45.52;101307.72;4979302;28;20019;-96